Terminal Aerodrome Forecast
Issued by NWS

Home | Current Version | Previous Version | Text Only | Print | Product List | Glossary On
Versions: 1 2 3 4 5 6 7 8 9 10 11 12 13 14 15 16 17 18
000
FTUS45 KTFX 051748
TAFCTB
TAF
KCTB 051748Z 0518/0618 32010KT 6SM -RA BR BKN035 OVC080
     FM052000 34008KT P6SM BKN050 OVC090
     FM060300 32005KT P6SM SCT150
     FM060600 VRB06KT P6SM SKC=

USA.gov is the U.S. government's official web portal to all federal, state and local government web resources and services.